createdAt,value
2018-05-02T00:00:24.112Z,1033.92
2018-05-02T00:01:24.100Z,1033.96
2018-05-02T00:02:24.091Z,1033.97
2018-05-02T00:03:24.079Z,1033.94
2018-05-02T00:04:24.067Z,1033.93
2018-05-02T00:05:24.058Z,1033.96
2018-05-02T00:06:24.045Z,1033.95
2018-05-02T00:07:24.036Z,1033.95
2018-05-02T00:08:24.024Z,1033.96
2018-05-02T00:09:24.030Z,1033.91
2018-05-02T00:10:24.003Z,1033.95
2018-05-02T00:11:23.992Z,1033.99
2018-05-02T00:12:23.990Z,1034.03
2018-05-02T00:13:23.969Z,1034.03
2018-05-02T00:14:23.959Z,1034.06
2018-05-02T00:15:23.946Z,1034.07
2018-05-02T00:16:23.937Z,1034.06
2018-05-02T00:17:23.925Z,1034.07
2018-05-02T00:18:23.918Z,1034.09
2018-05-02T00:19:23.905Z,1034.09
2018-05-02T00:20:23.893Z,1034.14
2018-05-02T00:21:23.882Z,1034.13
2018-05-02T00:22:23.872Z,1034.15
2018-05-02T00:23:23.859Z,1034.12
2018-05-02T00:24:23.849Z,1034.06
2018-05-02T00:25:23.842Z,1034.1
2018-05-02T00:26:23.827Z,1034.11
2018-05-02T00:27:23.816Z,1034.08
2018-05-02T00:28:23.804Z,1034.08
2018-05-02T00:29:23.797Z,1034.09
2018-05-02T00:30:23.782Z,1034.07
2018-05-02T00:31:23.778Z,1034.09
2018-05-02T00:32:23.766Z,1034.08
2018-05-02T00:33:23.750Z,1034.11
2018-05-02T00:34:23.737Z,1034.12
2018-05-02T00:35:23.727Z,1034.07
2018-05-02T00:36:23.717Z,1034.05
2018-05-02T00:37:23.710Z,1034.05
2018-05-02T00:38:23.694Z,1034.05
2018-05-02T00:39:23.684Z,1034.05
2018-05-02T00:40:23.672Z,1034.02
2018-05-02T00:41:23.661Z,1034.03
2018-05-02T00:42:23.654Z,1034
2018-05-02T00:43:23.639Z,1034.02
2018-05-02T00:44:23.634Z,1034.03
2018-05-02T00:45:23.620Z,1034.07
2018-05-02T00:46:23.606Z,1034.06
2018-05-02T00:47:23.595Z,1034.05
2018-05-02T00:48:23.586Z,1034.1
2018-05-02T00:49:23.573Z,1034.12
2018-05-02T00:50:23.575Z,1034.13
2018-05-02T00:51:23.550Z,1034.16
2018-05-02T00:52:23.538Z,1034.21
2018-05-02T00:53:23.528Z,1034.19
2018-05-02T00:54:23.518Z,1034.22
2018-05-02T00:55:23.506Z,1034.21
2018-05-02T00:56:23.498Z,1034.22
2018-05-02T00:57:23.483Z,1034.26
2018-05-02T00:58:23.473Z,1034.26
2018-05-02T00:59:23.460Z,1034.28
2018-05-02T01:00:23.467Z,1034.29
2018-05-02T01:01:23.440Z,1034.27
2018-05-02T01:02:23.427Z,1034.3
2018-05-02T01:03:23.416Z,1034.28
2018-05-02T01:04:23.405Z,1034.23
2018-05-02T01:05:23.395Z,1034.24
2018-05-02T01:06:23.387Z,1034.24
2018-05-02T01:07:23.372Z,1034.23
2018-05-02T01:08:23.361Z,1034.25
2018-05-02T01:09:24.765Z,1034.24
2018-05-02T01:10:23.340Z,1034.23
2018-05-02T01:11:23.326Z,1034.27
2018-05-02T01:12:23.316Z,1034.27
2018-05-02T01:13:23.306Z,1034.33
2018-05-02T01:14:23.293Z,1034.32
2018-05-02T01:15:23.284Z,1034.37
2018-05-02T01:16:23.270Z,1034.36
2018-05-02T01:17:23.260Z,1034.35
2018-05-02T01:18:23.247Z,1034.33
2018-05-02T01:19:23.236Z,1034.31
2018-05-02T01:20:23.226Z,1034.31
2018-05-02T01:21:23.213Z,1034.34
2018-05-02T01:22:23.203Z,1034.37
2018-05-02T01:23:23.192Z,1034.37
2018-05-02T01:24:23.182Z,1034.39
2018-05-02T01:25:23.169Z,1034.39
2018-05-02T01:26:23.157Z,1034.38
2018-05-02T01:27:23.147Z,1034.44
2018-05-02T01:28:23.135Z,1034.39
2018-05-02T01:29:23.124Z,1034.46
2018-05-02T01:30:23.113Z,1034.49
2018-05-02T01:31:23.103Z,1034.48
2018-05-02T01:32:23.092Z,1034.51
2018-05-02T01:33:23.079Z,1034.52
2018-05-02T01:34:23.069Z,1034.5
2018-05-02T01:35:23.057Z,1034.54
2018-05-02T01:36:23.045Z,1034.54
2018-05-02T01:37:23.039Z,1034.54
2018-05-02T01:38:23.022Z,1034.52
2018-05-02T01:39:23.011Z,1034.55
2018-05-02T01:40:22.999Z,1034.51
2018-05-02T01:41:22.991Z,1034.5
2018-05-02T01:42:22.978Z,1034.53
2018-05-02T01:43:22.966Z,1034.54
2018-05-02T01:44:22.960Z,1034.52
2018-05-02T01:45:22.943Z,1034.51
2018-05-02T01:46:22.932Z,1034.55
2018-05-02T01:47:22.920Z,1034.54
2018-05-02T01:48:22.909Z,1034.52
2018-05-02T01:49:22.906Z,1034.5
2018-05-02T01:50:22.887Z,1034.47
2018-05-02T01:51:22.890Z,1034.43
2018-05-02T01:52:22.863Z,1034.44
2018-05-02T01:53:22.852Z,1034.45
2018-05-02T01:54:22.839Z,1034.46
2018-05-02T01:55:22.828Z,1034.44
2018-05-02T01:56:22.818Z,1034.44
2018-05-02T01:57:22.806Z,1034.45
2018-05-02T01:58:22.793Z,1034.47
2018-05-02T01:59:22.783Z,1034.43
2018-05-02T02:00:22.772Z,1034.49
2018-05-02T02:01:22.759Z,1034.47
2018-05-02T02:02:22.748Z,1034.5
2018-05-02T02:03:22.737Z,1034.52
2018-05-02T02:04:22.726Z,1034.52
2018-05-02T02:05:22.715Z,1034.51
2018-05-02T02:06:22.703Z,1034.47
2018-05-02T02:07:22.692Z,1034.46
2018-05-02T02:08:22.682Z,1034.43
2018-05-02T02:09:22.669Z,1034.42
2018-05-02T02:10:22.657Z,1034.43
2018-05-02T02:11:22.646Z,1034.44
2018-05-02T02:12:22.633Z,1034.42
2018-05-02T02:13:22.622Z,1034.41
2018-05-02T02:14:22.611Z,1034.39
2018-05-02T02:15:22.600Z,1034.38
2018-05-02T02:16:22.593Z,1034.41
2018-05-02T02:17:22.576Z,1034.44
2018-05-02T02:18:22.565Z,1034.46
2018-05-02T02:19:22.554Z,1034.5
2018-05-02T02:20:22.541Z,1034.48
2018-05-02T02:21:22.531Z,1034.46
2018-05-02T02:22:22.521Z,1034.46
2018-05-02T02:23:22.507Z,1034.51
2018-05-02T02:24:22.495Z,1034.5
2018-05-02T02:25:22.485Z,1034.52
2018-05-02T02:26:22.473Z,1034.53
2018-05-02T02:27:22.461Z,1034.5
2018-05-02T02:28:22.450Z,1034.53
2018-05-02T02:29:22.439Z,1034.52
2018-05-02T02:30:22.432Z,1034.52
2018-05-02T02:31:22.415Z,1034.53
2018-05-02T02:32:22.404Z,1034.53
2018-05-02T02:33:22.392Z,1034.52
2018-05-02T02:34:22.380Z,1034.57
2018-05-02T02:35:22.369Z,1034.56
2018-05-02T02:36:22.358Z,1034.56
2018-05-02T02:37:22.346Z,1034.59
2018-05-02T02:38:22.334Z,1034.61
2018-05-02T02:39:22.323Z,1034.63
2018-05-02T02:40:22.312Z,1034.61
2018-05-02T02:41:22.301Z,1034.6
2018-05-02T02:42:22.289Z,1034.64
2018-05-02T02:43:22.275Z,1034.68
2018-05-02T02:44:22.265Z,1034.68
2018-05-02T02:45:22.252Z,1034.71
2018-05-02T02:46:22.241Z,1034.72
2018-05-02T02:47:22.230Z,1034.73
2018-05-02T02:48:22.219Z,1034.71
2018-05-02T02:49:22.249Z,1034.76
2018-05-02T02:50:22.195Z,1034.7
2018-05-02T02:51:22.183Z,1034.68
2018-05-02T02:52:22.171Z,1034.69
2018-05-02T02:53:22.162Z,1034.69
2018-05-02T02:54:22.148Z,1034.65
2018-05-02T02:55:22.168Z,1034.66
2018-05-02T02:56:22.125Z,1034.67
2018-05-02T02:57:22.113Z,1034.63
2018-05-02T02:58:22.102Z,1034.68
2018-05-02T02:59:22.091Z,1034.63
2018-05-02T03:00:22.078Z,1034.65
2018-05-02T03:01:22.066Z,1034.63
2018-05-02T03:02:22.056Z,1034.6
2018-05-02T03:03:22.051Z,1034.57
2018-05-02T03:04:22.032Z,1034.58
2018-05-02T03:05:22.021Z,1034.57
2018-05-02T03:06:22.010Z,1034.56
2018-05-02T03:07:22.004Z,1034.52
2018-05-02T03:08:21.985Z,1034.5
2018-05-02T03:09:21.974Z,1034.48
2018-05-02T03:10:21.962Z,1034.5
2018-05-02T03:11:21.953Z,1034.48
2018-05-02T03:12:21.938Z,1034.47
2018-05-02T03:13:21.927Z,1034.43
2018-05-02T03:14:21.914Z,1034.46
2018-05-02T03:15:21.902Z,1034.41
2018-05-02T03:16:21.896Z,1034.39
2018-05-02T03:17:21.880Z,1034.39
2018-05-02T03:18:21.867Z,1034.43
2018-05-02T03:19:21.855Z,1034.4
2018-05-02T03:20:21.845Z,1034.41
2018-05-02T03:21:21.831Z,1034.37
2018-05-02T03:22:21.819Z,1034.39
2018-05-02T03:23:21.808Z,1034.36
2018-05-02T03:24:21.797Z,1034.35
2018-05-02T03:25:21.784Z,1034.37
2018-05-02T03:26:21.772Z,1034.36
2018-05-02T03:27:21.761Z,1034.39
2018-05-02T03:28:21.749Z,1034.36
2018-05-02T03:29:21.737Z,1034.36
2018-05-02T03:30:21.726Z,1034.29
2018-05-02T03:31:21.715Z,1034.29
2018-05-02T03:32:21.703Z,1034.27
2018-05-02T03:33:21.690Z,1034.26
2018-05-02T03:34:21.679Z,1034.2
2018-05-02T03:35:21.668Z,1034.24
2018-05-02T03:36:21.656Z,1034.22
2018-05-02T03:37:21.643Z,1034.22
2018-05-02T03:38:21.632Z,1034.23
2018-05-02T03:39:21.621Z,1034.19
2018-05-02T03:40:21.610Z,1034.17
2018-05-02T03:41:21.597Z,1034.19
2018-05-02T03:42:21.586Z,1034.19
2018-05-02T03:43:21.574Z,1034.12
2018-05-02T03:44:21.563Z,1034.16
2018-05-02T03:45:21.551Z,1034.14
2018-05-02T03:46:21.538Z,1034.1
2018-05-02T03:47:21.525Z,1034.1
2018-05-02T03:48:21.514Z,1034.08
2018-05-02T03:49:21.503Z,1034.03
2018-05-02T03:50:21.492Z,1034.05
2018-05-02T03:51:21.482Z,1034
2018-05-02T03:52:21.468Z,1033.95
2018-05-02T03:53:21.457Z,1033.92
2018-05-02T03:54:21.446Z,1033.93
2018-05-02T03:55:21.434Z,1033.9
2018-05-02T03:56:21.422Z,1033.92
2018-05-02T03:57:21.412Z,1033.89
2018-05-02T03:58:21.399Z,1033.87
2018-05-02T03:59:21.389Z,1033.84
2018-05-02T04:00:21.377Z,1033.75
2018-05-02T04:01:21.367Z,1033.7
2018-05-02T04:02:21.357Z,1033.7
2018-05-02T04:03:21.347Z,1033.67
2018-05-02T04:04:21.333Z,1033.67
2018-05-02T04:05:21.322Z,1033.58
2018-05-02T04:06:21.310Z,1033.56
2018-05-02T04:07:21.299Z,1033.52
2018-05-02T04:08:21.288Z,1033.47
2018-05-02T04:09:21.277Z,1033.35
2018-05-02T04:10:21.265Z,1033.32
2018-05-02T04:11:21.263Z,1033.21
2018-05-02T04:12:21.250Z,1033.15
2018-05-02T04:13:21.233Z,1033.05
2018-05-02T04:14:21.224Z,1032.89
2018-05-02T04:15:21.214Z,1032.71
2018-05-02T04:16:21.203Z,1032.51
2018-05-02T04:17:21.191Z,1032.27
2018-05-02T04:18:21.181Z,1032.06
2018-05-02T04:19:21.174Z,1031.94
2018-05-02T04:20:21.160Z,1031.89
2018-05-02T04:21:21.150Z,1031.81
2018-05-02T04:22:21.140Z,1031.79
2018-05-02T04:23:21.131Z,1031.7
2018-05-02T04:24:21.121Z,1031.61
2018-05-02T04:25:21.112Z,1031.48
2018-05-02T04:26:21.105Z,1031.44
2018-05-02T04:27:21.094Z,1031.4
2018-05-02T04:28:21.085Z,1031.33
2018-05-02T04:29:21.082Z,1031.3
2018-05-02T04:30:21.067Z,1031.31
2018-05-02T04:31:21.059Z,1031.29
2018-05-02T04:32:21.051Z,1031.32
2018-05-02T04:33:21.042Z,1031.33
2018-05-02T04:34:21.034Z,1031.38
2018-05-02T04:35:21.025Z,1031.47
2018-05-02T04:36:21.018Z,1031.55
2018-05-02T04:37:21.010Z,1031.63
2018-05-02T04:38:21.002Z,1031.67
2018-05-02T04:39:20.995Z,1031.71
2018-05-02T04:40:20.986Z,1031.71
2018-05-02T04:41:20.979Z,1031.71
2018-05-02T04:42:20.971Z,1031.72
2018-05-02T04:43:20.964Z,1031.71
2018-05-02T04:44:20.956Z,1031.7
2018-05-02T04:45:20.948Z,1031.73
2018-05-02T04:46:20.946Z,1031.7
2018-05-02T04:47:20.933Z,1031.7
2018-05-02T04:48:20.929Z,1031.72
2018-05-02T04:49:20.916Z,1031.74
2018-05-02T04:50:20.911Z,1031.7
2018-05-02T04:51:20.902Z,1031.7
2018-05-02T04:52:20.897Z,1031.71
2018-05-02T04:53:20.886Z,1031.69
2018-05-02T04:54:20.881Z,1031.69
2018-05-02T04:55:20.906Z,1031.68
2018-05-02T04:56:20.865Z,1031.66
2018-05-02T04:57:20.857Z,1031.66
2018-05-02T04:58:20.850Z,1031.69
2018-05-02T04:59:20.842Z,1031.65
2018-05-02T05:00:20.834Z,1031.67
2018-05-02T05:01:20.827Z,1031.68
2018-05-02T05:02:20.820Z,1031.59
2018-05-02T05:03:20.821Z,1031.5
2018-05-02T05:04:20.805Z,1031.45
2018-05-02T05:05:20.797Z,1031.45
2018-05-02T05:06:20.790Z,1031.35
2018-05-02T05:07:20.784Z,1031.33
2018-05-02T05:08:20.776Z,1031.27
2018-05-02T05:09:20.769Z,1031.2
2018-05-02T05:10:20.763Z,1031.19
2018-05-02T05:11:20.759Z,1031.24
2018-05-02T05:12:20.781Z,1031.21
2018-05-02T05:13:20.741Z,1031.27
2018-05-02T05:14:20.735Z,1031.25
2018-05-02T05:15:20.727Z,1031.23
2018-05-02T05:16:20.720Z,1031.16
2018-05-02T05:17:20.721Z,1030.8
2018-05-02T05:18:20.708Z,1030.31
2018-05-02T05:19:20.704Z,1029.95
2018-05-02T05:20:20.695Z,1029.59
2018-05-02T05:21:20.689Z,1029.35
2018-05-02T05:22:20.693Z,1029.19
2018-05-02T05:23:20.677Z,1029.13
2018-05-02T05:24:20.673Z,1029.16
2018-05-02T05:25:20.668Z,1029.19
2018-05-02T05:26:20.662Z,1029.2
2018-05-02T05:27:20.659Z,1029.08
2018-05-02T05:28:20.658Z,1029.15
2018-05-02T05:29:20.649Z,1029.19
2018-05-02T05:30:20.644Z,1029.3
2018-05-02T05:31:20.640Z,1029.37
2018-05-02T05:32:20.640Z,1029.42
2018-05-02T05:33:20.631Z,1029.43
2018-05-02T05:34:20.630Z,1029.49
2018-05-02T05:35:20.690Z,1029.54
2018-05-02T05:36:20.625Z,1029.58
2018-05-02T05:37:20.617Z,1029.58
2018-05-02T05:38:20.613Z,1029.65
2018-05-02T05:39:20.611Z,1029.63
2018-05-02T05:40:20.606Z,1029.69
2018-05-02T05:41:20.602Z,1029.78
2018-05-02T05:42:20.599Z,1029.84
2018-05-02T05:43:20.644Z,1029.88
2018-05-02T05:44:20.592Z,1029.89
2018-05-02T05:45:20.588Z,1029.87
2018-05-02T05:46:20.584Z,1029.86
2018-05-02T05:47:20.581Z,1029.85
2018-05-02T05:48:20.577Z,1029.81
2018-05-02T05:49:20.573Z,1029.76
2018-05-02T05:50:20.573Z,1029.64
2018-05-02T05:51:20.567Z,1029.61
2018-05-02T05:52:20.562Z,1029.54
2018-05-02T05:53:20.563Z,1029.55
2018-05-02T05:54:20.584Z,1029.53
2018-05-02T05:55:20.551Z,1029.52
2018-05-02T05:56:20.548Z,1029.49
2018-05-02T05:57:20.544Z,1029.39
2018-05-02T05:58:20.542Z,1029.39
2018-05-02T05:59:20.537Z,1029.31
2018-05-02T06:00:20.534Z,1029.28
2018-05-02T06:01:20.530Z,1029.26
2018-05-02T06:02:20.531Z,1029.24
2018-05-02T06:03:20.523Z,1029.2
2018-05-02T06:04:20.520Z,1029.17
2018-05-02T06:05:20.517Z,1029.18
2018-05-02T06:06:20.513Z,1029.06
2018-05-02T06:07:20.513Z,1029.04
2018-05-02T06:08:20.511Z,1028.97
2018-05-02T06:09:20.505Z,1028.77
2018-05-02T06:10:20.500Z,1028.8
2018-05-02T06:11:20.498Z,1028.69
2018-05-02T06:12:20.496Z,1028.6
2018-05-02T06:13:20.494Z,1028.46
2018-05-02T06:14:20.490Z,1028.43
2018-05-02T06:15:20.488Z,1028.38
2018-05-02T06:16:20.486Z,1028.39
2018-05-02T06:17:20.484Z,1028.31
2018-05-02T06:18:20.485Z,1028.31
2018-05-02T06:19:20.478Z,1028.32
2018-05-02T06:20:20.481Z,1028.3
2018-05-02T06:21:20.474Z,1028.33
2018-05-02T06:22:20.471Z,1028.38
2018-05-02T06:23:20.473Z,1028.36
2018-05-02T06:24:20.466Z,1028.34
2018-05-02T06:25:20.465Z,1028.37
2018-05-02T06:26:20.464Z,1028.32
2018-05-02T06:27:20.462Z,1028.32
2018-05-02T06:28:20.459Z,1027.97
2018-05-02T06:29:20.472Z,1027.77
2018-05-02T06:30:20.456Z,1027.73
2018-05-02T06:31:20.471Z,1027.93
2018-05-02T06:32:20.457Z,1028.02
2018-05-02T06:33:20.498Z,1027.74
2018-05-02T06:34:20.451Z,1027.78
2018-05-02T06:35:20.460Z,1027.78
2018-05-02T06:36:20.448Z,1027.82
2018-05-02T06:37:20.451Z,1027.85
2018-05-02T06:38:20.447Z,1027.84
2018-05-02T06:39:20.445Z,1027.55
2018-05-02T06:40:20.448Z,1027.79
2018-05-02T06:41:20.445Z,1027.28
2018-05-02T06:42:20.444Z,1027.21
2018-05-02T06:43:20.453Z,1027.16
2018-05-02T06:44:20.445Z,1027.05
2018-05-02T06:45:20.442Z,1027.15
2018-05-02T06:46:20.441Z,1027.25
2018-05-02T06:47:20.458Z,1027.11
2018-05-02T06:48:20.442Z,1027.31
2018-05-02T06:49:20.496Z,1027.4
2018-05-02T06:50:20.477Z,1027.35
2018-05-02T06:51:20.477Z,1027.42
2018-05-02T06:52:20.451Z,1027.19
2018-05-02T06:53:20.458Z,1026.86
2018-05-02T06:54:20.475Z,1026.92
2018-05-02T06:55:20.443Z,1026.97
2018-05-02T06:56:20.443Z,1026.84
2018-05-02T06:57:20.444Z,1026.81
2018-05-02T06:58:20.450Z,1026.71
2018-05-02T06:59:20.444Z,1026.78
2018-05-02T07:00:20.446Z,1026.08
2018-05-02T07:01:20.445Z,1026.16
2018-05-02T07:02:20.449Z,1026.01
2018-05-02T07:03:20.453Z,1025.74
2018-05-02T07:04:20.458Z,1025.93
2018-05-02T07:05:20.454Z,1025.57
2018-05-02T07:06:20.453Z,1025.88
2018-05-02T07:07:20.454Z,1025.92
2018-05-02T07:08:20.456Z,1025.35
2018-05-02T07:09:20.459Z,1025.33
2018-05-02T07:10:20.466Z,1025.64
2018-05-02T07:11:20.470Z,1025.62
2018-05-02T07:12:20.467Z,1026.08
2018-05-02T07:13:20.472Z,1025.8
2018-05-02T07:14:20.473Z,1025.72
2018-05-02T07:15:20.479Z,1026.03
2018-05-02T07:16:20.478Z,1026.2
2018-05-02T07:17:20.484Z,1026.43
2018-05-02T07:18:20.492Z,1026.42
2018-05-02T07:19:20.492Z,1026.39
2018-05-02T07:20:20.495Z,1026.43
2018-05-02T07:21:20.503Z,1026.28
2018-05-02T07:22:20.501Z,1026.05
2018-05-02T07:23:20.502Z,1026.16
2018-05-02T07:24:20.501Z,1026.28
2018-05-02T07:25:20.504Z,1026.41
2018-05-02T07:26:20.508Z,1026.55
2018-05-02T07:27:20.513Z,1026.56
2018-05-02T07:28:20.513Z,1026.71
2018-05-02T07:29:20.517Z,1026.72
2018-05-02T07:30:20.520Z,1026.55
2018-05-02T07:31:20.520Z,1026.45
2018-05-02T07:32:20.526Z,1026.61
2018-05-02T07:33:20.526Z,1026.59
2018-05-02T07:34:20.536Z,1026.6
2018-05-02T07:35:20.558Z,1026.48
2018-05-02T07:36:20.534Z,1026.36
2018-05-02T07:37:20.536Z,1026.24
2018-05-02T07:38:20.538Z,1025.82
2018-05-02T07:39:20.541Z,1025.9
2018-05-02T07:40:20.544Z,1025.45
2018-05-02T07:41:20.562Z,1025.23
2018-05-02T07:42:20.557Z,1024.68
2018-05-02T07:43:20.568Z,1024.79
2018-05-02T07:44:20.556Z,1024.68
2018-05-02T07:45:20.558Z,1024.33
2018-05-02T07:46:20.568Z,1024.39
2018-05-02T07:47:20.584Z,1024.6
2018-05-02T07:48:20.573Z,1025.05
2018-05-02T07:49:20.595Z,1024.89
2018-05-02T07:50:20.593Z,1024.52
2018-05-02T07:51:20.588Z,1024.23
2018-05-02T07:52:20.614Z,1023.83
2018-05-02T07:53:20.604Z,1023.83
2018-05-02T07:54:20.616Z,1023.84
2018-05-02T07:55:20.632Z,1023.75
2018-05-02T07:56:20.617Z,1023.8
2018-05-02T07:57:20.627Z,1023.7
2018-05-02T07:58:20.629Z,1023.86
2018-05-02T07:59:20.632Z,1024.42
2018-05-02T08:00:20.638Z,1024.25
2018-05-02T08:01:20.645Z,1023.99
2018-05-02T08:02:20.653Z,1024.35
2018-05-02T08:03:20.669Z,1024.3
2018-05-02T08:04:20.665Z,1025.01
2018-05-02T08:05:20.673Z,1025.44
2018-05-02T08:06:20.679Z,1025.44
2018-05-02T08:07:20.694Z,1025.75
2018-05-02T08:08:20.717Z,1026.14
2018-05-02T08:09:20.696Z,1026.48
2018-05-02T08:10:20.703Z,1026.57
2018-05-02T08:11:20.707Z,1026.58
2018-05-02T08:12:20.716Z,1026.62
2018-05-02T08:13:20.728Z,1026.8
2018-05-02T08:14:20.732Z,1026.97
2018-05-02T08:15:20.742Z,1027.17
2018-05-02T08:16:20.767Z,1027.4
2018-05-02T08:17:20.743Z,1027.64
2018-05-02T08:18:20.739Z,1027.89
2018-05-02T08:19:20.772Z,1028.11
2018-05-02T08:20:20.747Z,1028.17
2018-05-02T08:21:20.749Z,1028.34
2018-05-02T08:22:20.767Z,1028.47
2018-05-02T08:23:20.756Z,1028.63
2018-05-02T08:24:20.758Z,1028.59
2018-05-02T08:25:20.761Z,1028.62
2018-05-02T08:26:20.762Z,1028.69
2018-05-02T08:27:20.764Z,1028.66
2018-05-02T08:28:20.765Z,1028.62
2018-05-02T08:29:20.768Z,1028.6
2018-05-02T08:30:20.767Z,1028.66
2018-05-02T08:31:20.768Z,1028.69
2018-05-02T08:32:20.771Z,1028.78
2018-05-02T08:33:20.773Z,1028.79
2018-05-02T08:34:20.771Z,1028.77
2018-05-02T08:35:20.771Z,1028.76
2018-05-02T08:36:20.771Z,1028.78
2018-05-02T08:37:20.776Z,1028.71
2018-05-02T08:38:20.771Z,1028.67
2018-05-02T08:39:20.778Z,1028.81
2018-05-02T08:40:20.771Z,1028.86
2018-05-02T08:41:20.776Z,1028.92
2018-05-02T08:42:20.773Z,1028.85
2018-05-02T08:43:20.769Z,1028.96
2018-05-02T08:44:20.770Z,1028.99
2018-05-02T08:45:20.769Z,1029.03
2018-05-02T08:46:20.769Z,1029.04
2018-05-02T08:47:20.771Z,1029.07
2018-05-02T08:48:20.768Z,1029.21
2018-05-02T08:49:20.767Z,1029.22
2018-05-02T08:50:20.771Z,1029.35
2018-05-02T08:51:20.781Z,1029.39
2018-05-02T08:52:20.772Z,1029.52
2018-05-02T08:53:20.763Z,1029.61
2018-05-02T08:54:20.771Z,1029.65
2018-05-02T08:55:20.768Z,1029.72
2018-05-02T08:56:20.763Z,1029.8
2018-05-02T08:57:20.781Z,1029.81
2018-05-02T08:58:20.757Z,1029.78
2018-05-02T08:59:20.759Z,1029.76
2018-05-02T09:00:20.755Z,1029.77
2018-05-02T09:01:20.769Z,1029.79
2018-05-02T09:02:20.750Z,1029.73
2018-05-02T09:03:20.763Z,1029.7
2018-05-02T09:04:20.747Z,1029.59
2018-05-02T09:05:20.750Z,1029.48
2018-05-02T09:06:20.749Z,1029.38
2018-05-02T09:07:20.742Z,1029.36
2018-05-02T09:08:20.739Z,1029.33
2018-05-02T09:09:20.743Z,1029.18
2018-05-02T09:10:20.735Z,1029.15
2018-05-02T09:11:20.736Z,1029.02
2018-05-02T09:12:20.732Z,1028.78
2018-05-02T09:13:20.729Z,1028.69
2018-05-02T09:14:20.729Z,1028.52
2018-05-02T09:15:20.730Z,1028.51
2018-05-02T09:16:20.724Z,1028.42
2018-05-02T09:17:20.722Z,1028.43
2018-05-02T09:18:20.722Z,1028.47
2018-05-02T09:19:20.725Z,1028.48
2018-05-02T09:20:20.719Z,1028.54
2018-05-02T09:21:20.716Z,1028.52
2018-05-02T09:22:20.715Z,1028.46
2018-05-02T09:23:20.713Z,1028.48
2018-05-02T09:24:20.712Z,1028.43
2018-05-02T09:25:20.710Z,1028.49
2018-05-02T09:26:20.710Z,1028.38
2018-05-02T09:27:20.707Z,1028.39
2018-05-02T09:28:20.707Z,1028.37
2018-05-02T09:29:20.710Z,1028.36
2018-05-02T09:30:20.710Z,1028.42
2018-05-02T09:31:20.714Z,1028.4
2018-05-02T09:32:20.700Z,1028.37
2018-05-02T09:33:20.700Z,1028.35
2018-05-02T09:34:20.700Z,1028.28
2018-05-02T09:35:20.696Z,1028.34
2018-05-02T09:36:20.702Z,1028.29
2018-05-02T09:37:20.703Z,1028.33
2018-05-02T09:38:20.693Z,1028.35
2018-05-02T09:39:20.699Z,1028.39
2018-05-02T09:40:20.708Z,1028.5
2018-05-02T09:41:20.691Z,1028.71
2018-05-02T09:42:20.688Z,1028.69
2018-05-02T09:43:20.686Z,1028.89
2018-05-02T09:44:20.685Z,1029
2018-05-02T09:45:20.689Z,1029.15
2018-05-02T09:46:20.690Z,1029.22
2018-05-02T09:47:20.682Z,1029.32
2018-05-02T09:48:20.689Z,1029.33
2018-05-02T09:49:20.678Z,1029.36
2018-05-02T09:50:20.675Z,1029.43
2018-05-02T09:51:20.686Z,1029.43
2018-05-02T09:52:20.673Z,1029.44
2018-05-02T09:53:20.671Z,1029.43
2018-05-02T09:54:20.668Z,1029.38
2018-05-02T09:55:20.684Z,1029.51
2018-05-02T09:56:20.667Z,1029.5
2018-05-02T09:57:20.661Z,1029.51
2018-05-02T09:58:20.711Z,1029.57
2018-05-02T09:59:20.657Z,1029.6
2018-05-02T10:00:20.653Z,1029.59
2018-05-02T10:01:20.653Z,1029.65
2018-05-02T10:02:20.651Z,1029.69
2018-05-02T10:03:20.647Z,1029.72
2018-05-02T10:04:20.661Z,1029.76
2018-05-02T10:05:20.653Z,1029.73
2018-05-02T10:06:20.646Z,1029.82
2018-05-02T10:07:20.635Z,1029.78
2018-05-02T10:08:20.632Z,1029.79
2018-05-02T10:09:20.632Z,1029.76
2018-05-02T10:10:20.627Z,1029.8
2018-05-02T10:11:20.636Z,1029.8
2018-05-02T10:12:20.621Z,1029.75
2018-05-02T10:13:20.619Z,1029.75
2018-05-02T10:14:20.615Z,1029.73
2018-05-02T10:15:20.612Z,1029.74
2018-05-02T10:16:20.612Z,1029.75
2018-05-02T10:17:20.618Z,1029.71
2018-05-02T10:18:20.607Z,1029.66
2018-05-02T10:19:20.610Z,1029.64
2018-05-02T10:20:20.602Z,1029.7
2018-05-02T10:21:20.598Z,1029.67
2018-05-02T10:22:20.602Z,1029.65
2018-05-02T10:23:20.587Z,1029.63
2018-05-02T10:24:20.583Z,1029.63
2018-05-02T10:25:20.584Z,1029.66
2018-05-02T10:26:20.639Z,1029.6
2018-05-02T10:27:20.574Z,1029.61
2018-05-02T10:28:20.577Z,1029.57
2018-05-02T10:29:20.584Z,1029.56
2018-05-02T10:30:20.566Z,1029.58
2018-05-02T10:31:20.571Z,1029.62
2018-05-02T10:32:20.557Z,1029.6
2018-05-02T10:33:20.564Z,1029.54
2018-05-02T10:34:20.559Z,1029.53
2018-05-02T10:35:20.552Z,1029.58
2018-05-02T10:36:20.545Z,1029.53
2018-05-02T10:37:20.541Z,1029.48
2018-05-02T10:38:20.541Z,1029.47
2018-05-02T10:39:20.536Z,1029.43
2018-05-02T10:40:20.531Z,1029.49
2018-05-02T10:41:20.528Z,1029.51
2018-05-02T10:42:20.526Z,1029.42
2018-05-02T10:43:20.526Z,1029.43
2018-05-02T10:44:20.518Z,1029.45
2018-05-02T10:45:20.515Z,1029.42
2018-05-02T10:46:20.513Z,1029.44
2018-05-02T10:47:20.509Z,1029.37
2018-05-02T10:48:20.508Z,1029.34
2018-05-02T10:49:20.503Z,1029.35
2018-05-02T10:50:20.536Z,1029.28
2018-05-02T10:51:20.510Z,1029.25
2018-05-02T10:52:20.493Z,1029.23
2018-05-02T10:53:20.490Z,1029.22
2018-05-02T10:54:20.489Z,1029.28
2018-05-02T10:55:20.485Z,1029.3
2018-05-02T10:56:20.483Z,1029.29
2018-05-02T10:57:20.481Z,1029.36
2018-05-02T10:58:20.477Z,1029.43
2018-05-02T10:59:20.482Z,1029.51
2018-05-02T11:00:20.468Z,1029.68
2018-05-02T11:01:20.465Z,1029.69
2018-05-02T11:02:20.464Z,1029.81
2018-05-02T11:03:20.458Z,1029.87
2018-05-02T11:04:20.457Z,1029.89
2018-05-02T11:05:20.452Z,1029.91
2018-05-02T11:06:20.450Z,1029.94
2018-05-02T11:07:20.447Z,1029.98
2018-05-02T11:08:20.483Z,1029.95
2018-05-02T11:09:20.438Z,1030.02
2018-05-02T11:10:20.434Z,1030.07
2018-05-02T11:11:20.433Z,1030.05
2018-05-02T11:12:20.431Z,1030.01
2018-05-02T11:13:20.430Z,1030.02
2018-05-02T11:14:20.438Z,1029.97
2018-05-02T11:15:20.425Z,1029.98
2018-05-02T11:16:20.430Z,1029.98
2018-05-02T11:17:20.434Z,1030
2018-05-02T11:18:20.406Z,1030.07
2018-05-02T11:19:20.414Z,1030.06
2018-05-02T11:20:20.408Z,1030.11
2018-05-02T11:21:20.396Z,1030.1
2018-05-02T11:22:20.390Z,1030.08
2018-05-02T11:23:20.390Z,1030.08
2018-05-02T11:24:20.383Z,1030.04
2018-05-02T11:25:20.382Z,1030.04
2018-05-02T11:26:20.375Z,1030.06
2018-05-02T11:27:20.383Z,1030.03
2018-05-02T11:28:20.395Z,1030.03
2018-05-02T11:29:20.363Z,1029.99
2018-05-02T11:30:20.365Z,1029.96
2018-05-02T11:31:20.368Z,1029.91
2018-05-02T11:32:20.359Z,1029.9
2018-05-02T11:33:20.355Z,1029.86
2018-05-02T11:34:20.344Z,1029.91
2018-05-02T11:35:20.354Z,1029.91
2018-05-02T11:36:20.335Z,1029.95
2018-05-02T11:37:20.334Z,1029.94
2018-05-02T11:38:20.341Z,1029.94
2018-05-02T11:39:20.329Z,1029.93
2018-05-02T11:40:20.321Z,1029.94
2018-05-02T11:41:20.316Z,1029.97
2018-05-02T11:42:20.312Z,1029.95
2018-05-02T11:43:20.309Z,1029.96
2018-05-02T11:44:20.313Z,1029.92
2018-05-02T11:45:20.323Z,1029.92
2018-05-02T11:46:20.380Z,1029.9
2018-05-02T11:47:20.293Z,1029.88
2018-05-02T11:48:20.293Z,1029.83
2018-05-02T11:49:20.283Z,1029.73
2018-05-02T11:50:20.293Z,1029.8
2018-05-02T11:51:20.286Z,1029.84
2018-05-02T11:52:20.287Z,1029.87
2018-05-02T11:53:20.288Z,1029.87
2018-05-02T11:54:20.267Z,1029.91
2018-05-02T11:55:20.263Z,1029.89
2018-05-02T11:56:20.267Z,1029.84
2018-05-02T11:57:20.267Z,1029.82
2018-05-02T11:58:20.278Z,1029.83
2018-05-02T11:59:20.258Z,1029.77
2018-05-02T12:00:20.257Z,1029.81
2018-05-02T12:01:20.245Z,1029.73
2018-05-02T12:02:20.245Z,1029.68
2018-05-02T12:03:20.923Z,1029.68
2018-05-02T12:04:20.225Z,1029.69
2018-05-02T12:05:20.232Z,1029.69
2018-05-02T12:06:20.228Z,1029.65
2018-05-02T12:07:20.218Z,1029.59
2018-05-02T12:08:20.223Z,1029.55